Gatesville, North Carolina
Current Conditions -  °F | °C
As of 4:35 AM on Monday 24 Nov 2014 (Local Time) from KFKN Reporting Station
Overcast Overcast  
Wind Chill: 68°   Ceiling: 1400
Heat Index: 68°   Visibility: 10mi
Dew Point: 66°   Wind: 12mph
Humidity: 94%   Direction: 190°S
Pressure: 29.76"   Gusts: 16mph
Location:  36.4°N, 76.75°W
Report Text: KFKN 240935Z AUTO 19010G14KT 10SM BKN014 OVC019 20/19 A2976 RMK AO1
Loading
Personal Weather Stations






























Interactive Weather Map New forecast layout! Learn more

10-Day Weather Forecast

Advertisements
Track Severe Weather on mobile